Potecasi, North Carolina
Current Conditions -  °F | °C
As of 2:15 PM on Thursday 23 Oct 2014 (Local Time) from KASJ Reporting Station
Clear Clear  
Wind Chill: 64°   Ceiling: Unl
Heat Index: 64°   Visibility: 10mi
Dew Point: 46°   Wind: 7mph
Humidity: 52%   Direction: 300°WNW
Pressure: 29.89"   Gusts: NA
Location:  36.36°N, 77.24°W
Report Text: KASJ 231815Z AUTO 30006KT 10SM CLR 18/08 A2989 RMK AO2 T01790078
Loading
Personal Weather Stations






























Interactive Weather Map
Tropical Storm Tracking
New forecast layout! Learn more

10-Day Weather Forecast

Advertisements
Track Severe Weather on mobile